Time;durP1;ratioP1;P1;durP2;ratioP2;P2;SDS_P1;SDS_P2;PMS_P1;PMS_P2;Temp;Humidity;BMP_temperature;BMP_pressure;BME280_temperature;BME280_humidity;BME280_pressure;Samples;Min_cycle;Max_cycle;Signal;HPM_P1;HPM_P2
2022/05/30 00:01:09;;;;;;;2.57;2.30;;;11.10;99.90;;;-141.84;77.07;18446.31;5071370;28;20204;-56
2022/05/30 00:03:37;;;;;;;2.67;2.43;;;11.10;99.90;;;-141.84;77.23;18436.16;5071171;28;20276;-55
2022/05/30 00:06:10;;;;;;;2.73;2.53;;;11.20;99.90;;;-141.84;76.35;18458.50;5071361;28;20201;-57
2022/05/30 00:08:39;;;;;;;2.60;2.40;;;11.20;99.90;;;-141.84;77.35;18407.69;5071267;28;20736;-55
2022/05/30 00:11:10;;;;;;;3.00;2.60;;;11.20;99.90;;;-141.84;76.79;18442.25;5071243;28;20288;-55
2022/05/30 00:13:39;;;;;;;2.87;2.67;;;11.20;99.90;;;-141.84;76.95;18401.59;5071413;28;20228;-57
2022/05/30 00:16:12;;;;;;;2.77;2.57;;;11.10;99.90;;;-141.84;77.11;18407.69;5070861;28;20835;-55
2022/05/30 00:18:41;;;;;;;3.73;2.60;;;11.10;99.90;;;-141.84;77.43;18423.94;5071129;28;20638;-57
2022/05/30 00:21:09;;;;;;;2.93;2.63;;;11.10;99.90;;;-141.84;77.64;18405.66;5071511;28;20672;-57
2022/05/30 00:23:37;;;;;;;2.83;2.63;;;11.00;99.90;;;-141.84;77.69;18428.03;5071254;28;20203;-56
2022/05/30 00:26:06;;;;;;;2.83;2.63;;;11.10;99.90;;;-141.84;77.92;18407.69;5070944;28;20309;-57
2022/05/30 00:28:36;;;;;;;3.00;2.70;;;11.00;99.90;;;-141.84;78.65;18373.16;5071140;28;20302;-57
2022/05/30 00:31:08;;;;;;;3.20;2.90;;;11.00;99.90;;;-141.84;78.82;18375.19;5070806;28;20684;-56
2022/05/30 00:33:38;;;;;;;3.27;2.90;;;10.90;99.90;;;-141.84;79.18;18360.97;5070843;28;20185;-55
2022/05/30 00:36:06;;;;;;;2.57;2.33;;;10.80;99.90;;;-141.84;79.74;18395.50;5071188;28;20295;-54
2022/05/30 00:38:34;;;;;;;2.90;2.57;;;10.80;99.90;;;-141.84;80.83;18379.25;5071273;28;20281;-55
2022/05/30 00:41:03;;;;;;;2.53;2.33;;;10.70;99.90;;;-141.84;80.92;18385.34;5071113;28;20231;-56
2022/05/30 00:43:34;;;;;;;2.90;2.50;;;10.70;99.90;;;-141.84;80.39;18371.13;5071156;28;20292;-55
2022/05/30 00:46:11;;;;;;;2.87;2.30;;;10.60;99.90;;;-141.84;79.40;18367.06;5073361;28;20193;-58
2022/05/30 00:48:46;;;;;;;3.03;2.20;;;10.70;99.90;;;-141.84;78.25;18391.44;5074052;28;20211;-55
2022/05/30 00:51:19;;;;;;;2.40;2.20;;;10.70;99.90;;;-141.84;79.19;18387.38;5074298;28;20633;-54
2022/05/30 00:53:52;;;;;;;2.50;2.30;;;10.70;99.90;;;-141.84;79.08;18375.19;5074602;28;20191;-56
2022/05/30 00:56:22;;;;;;;2.23;1.80;;;10.70;99.90;;;-141.84;78.89;18373.16;5074671;28;20276;-55
2022/05/30 00:58:51;;;;;;;3.27;2.03;;;10.80;99.90;;;-141.84;78.14;18403.63;5074367;28;20201;-53
2022/05/30 01:01:21;;;;;;;2.13;1.93;;;10.80;99.90;;;-141.84;79.21;18352.84;5074313;28;20196;-55
2022/05/30 01:06:45;;;;;;;2.90;2.07;;;10.80;99.90;;;-141.84;80.24;18352.84;5074246;28;20276;-57
2022/05/30 01:09:17;;;;;;;2.23;2.03;;;10.80;99.90;;;-141.84;79.98;18346.75;5074193;28;20273;-57
2022/05/30 01:11:56;;;;;;;3.33;2.30;;;10.80;99.90;;;-141.84;78.79;18379.25;5074100;28;20276;-55
2022/05/30 01:14:33;;;;;;;2.57;2.37;;;10.80;99.90;;;-141.84;79.51;18389.41;5074157;28;20295;-55
2022/05/30 01:17:02;;;;;;;5.23;2.10;;;10.80;99.90;;;-141.84;79.98;18375.19;5074145;28;20180;-57
2022/05/30 01:20:06;;;;;;;2.30;2.10;;;10.80;99.90;;;-141.84;80.74;18360.97;5073650;28;20288;-56
2022/05/30 01:23:15;;;;;;;3.33;2.30;;;10.80;99.90;;;-141.84;79.72;18348.78;5031550;28;20205;-57
2022/05/30 01:26:24;;;;;;;3.00;2.17;;;10.80;99.90;;;-141.84;81.20;18346.75;5073730;28;20192;-56
2022/05/30 01:29:02;;;;;;;2.40;2.20;;;10.70;99.90;;;-141.84;81.76;18334.56;5073857;28;20241;-56
2022/05/30 01:31:31;;;;;;;3.50;2.67;;;10.60;99.90;;;-141.84;82.05;18312.22;5073946;28;20188;-57
2022/05/30 01:34:00;;;;;;;3.10;2.80;;;10.50;99.90;;;-141.84;82.77;18324.41;5073573;28;20255;-56
2022/05/30 01:36:31;;;;;;;2.90;2.60;;;10.50;99.90;;;-141.84;83.17;18304.09;5073784;28;20288;-56
2022/05/30 01:38:59;;;;;;;3.10;2.77;;;10.40;99.90;;;-141.84;84.00;18261.44;5073707;28;20283;-57
2022/05/30 01:41:27;;;;;;;2.80;2.50;;;10.40;99.90;;;-141.84;84.21;18263.47;5073267;28;20215;-57
2022/05/30 01:43:57;;;;;;;3.23;2.87;;;10.30;99.90;;;-141.84;84.04;18281.75;5073340;28;20583;-56
2022/05/30 01:46:26;;;;;;;4.47;3.07;;;10.30;99.90;;;-141.84;84.23;18237.06;5073151;28;20196;-58
2022/05/30 01:48:54;;;;;;;3.37;2.70;;;10.20;99.90;;;-141.84;83.91;18261.44;5073194;28;20220;-56
2022/05/30 01:51:23;;;;;;;3.10;2.63;;;10.20;99.90;;;-141.84;83.73;18265.50;5073482;28;20201;-56
2022/05/30 01:53:52;;;;;;;4.53;3.17;;;10.20;99.90;;;-141.84;84.46;18247.22;5073351;28;20243;-57
2022/05/30 01:56:21;;;;;;;3.23;2.70;;;10.20;99.90;;;-141.84;84.53;18235.00;5072353;28;20205;-56
2022/05/30 01:58:50;;;;;;;3.47;2.70;;;10.20;99.90;;;-141.84;84.61;18235.00;5072948;28;20657;-54
2022/05/30 02:01:24;;;;;;;4.43;2.87;;;10.30;99.90;;;-141.84;83.50;18249.25;5073181;28;20200;-55
2022/05/30 02:03:54;;;;;;;3.27;2.97;;;10.30;99.90;;;-141.84;83.29;18265.50;5072848;28;20193;-55
2022/05/30 02:06:26;;;;;;;3.50;2.73;;;10.40;99.90;;;-141.84;83.97;18241.13;5072881;28;20211;-58
2022/05/30 02:08:55;;;;;;;3.70;2.80;;;10.40;99.90;;;-141.84;84.62;18232.97;5072702;28;20213;-56
2022/05/30 02:11:22;;;;;;;4.00;2.90;;;10.40;99.90;;;-141.84;83.91;18226.88;5073144;28;20200;-55
2022/05/30 02:13:51;;;;;;;3.70;3.20;;;10.40;99.90;;;-141.84;83.01;18261.44;5072963;28;20300;-56
2022/05/30 02:19:09;;;;;;;4.00;2.93;;;10.50;99.90;;;-141.84;84.15;18210.63;5072536;28;20267;-55
2022/05/30 02:21:37;;;;;;;3.97;3.17;;;10.50;99.90;;;-141.84;83.99;18253.31;5072830;28;20212;-55
2022/05/30 02:24:08;;;;;;;3.43;3.03;;;10.50;99.90;;;-141.84;83.41;18251.28;5072460;28;20201;-55
2022/05/30 02:26:37;;;;;;;3.60;3.30;;;10.50;99.90;;;-141.84;83.40;18239.09;5072631;28;20199;-56
2022/05/30 02:29:07;;;;;;;4.37;3.60;;;10.50;99.90;;;-141.84;83.11;18230.94;5072686;28;20568;-56
2022/05/30 02:31:36;;;;;;;4.93;3.77;;;10.50;99.90;;;-141.84;82.63;18263.47;5072187;28;20593;-56
2022/05/30 02:36:52;;;;;;;6.83;3.00;;;10.60;99.90;;;-141.84;82.53;18257.38;5072592;28;20322;-55
2022/05/30 02:39:22;;;;;;;4.10;3.27;;;10.60;99.90;;;-141.84;82.84;18232.97;5072543;28;20196;-58
2022/05/30 02:41:52;;;;;;;3.30;3.00;;;10.70;99.90;;;-141.84;83.23;18245.19;5072161;28;20724;-55
2022/05/30 02:44:24;;;;;;;5.03;3.30;;;10.70;99.90;;;-141.84;82.74;18265.50;5072213;28;20204;-59
2022/05/30 02:46:57;;;;;;;5.80;4.40;;;10.70;99.90;;;-141.84;81.25;18295.97;5072052;28;20203;-55
2022/05/30 02:49:27;;;;;;;6.53;4.13;;;10.80;99.90;;;-141.84;82.14;18263.47;5072347;28;20619;-58
2022/05/30 02:51:57;;;;;;;6.17;4.30;;;10.70;99.90;;;-141.84;82.57;18245.19;5071973;28;20684;-56
2022/05/30 02:54:26;;;;;;;5.70;4.37;;;10.70;99.90;;;-141.84;83.13;18228.91;5072262;28;20224;-54
2022/05/30 02:56:57;;;;;;;5.67;4.20;;;10.70;99.90;;;-141.84;83.87;18241.13;5072141;28;20207;-54
2022/05/30 02:59:26;;;;;;;5.57;4.03;;;10.70;99.90;;;-141.84;84.33;18206.56;5071984;28;20708;-57
2022/05/30 03:01:56;;;;;;;5.90;4.40;;;10.60;99.90;;;-141.84;84.71;18194.38;5071819;28;20291;-52
2022/05/30 03:04:24;;;;;;;5.83;4.13;;;10.60;99.90;;;-141.84;84.48;18182.19;5072377;28;20224;-56
2022/05/30 03:06:52;;;;;;;5.43;4.50;;;10.60;99.90;;;-141.84;85.26;18155.78;5071818;28;20222;-56
2022/05/30 03:09:20;;;;;;;5.87;3.97;;;10.60;99.90;;;-141.84;85.14;18170.00;5067531;28;20224;-56
2022/05/30 03:11:48;;;;;;;7.23;4.03;;;10.60;99.90;;;-141.84;84.00;18202.50;5068103;28;20691;-58
2022/05/30 03:14:16;;;;;;;6.80;4.27;;;10.60;99.90;;;-141.84;85.02;18172.03;5071595;28;20211;-55
2022/05/30 03:16:44;;;;;;;5.07;4.10;;;10.60;99.90;;;-141.84;85.93;18153.75;5071103;28;20219;-53
2022/05/30 03:19:14;;;;;;;6.93;4.63;;;10.60;99.90;;;-141.84;85.52;18145.63;5071782;28;20288;-55
2022/05/30 03:21:42;;;;;;;7.30;4.47;;;10.60;99.90;;;-141.84;85.79;18157.81;5071725;28;20296;-55
2022/05/30 03:24:09;;;;;;;7.93;4.70;;;10.60;99.90;;;-141.84;84.94;18153.75;5071578;28;20200;-52
2022/05/30 03:26:37;;;;;;;7.27;4.80;;;10.60;99.90;;;-141.84;85.17;18186.25;5071617;28;20314;-55
2022/05/30 03:29:05;;;;;;;5.50;4.53;;;10.60;99.90;;;-141.84;83.89;18172.03;5071033;28;20312;-56
2022/05/30 03:31:33;;;;;;;6.40;4.50;;;10.70;99.90;;;-141.84;85.07;18149.69;5070496;28;20302;-58
2022/05/30 03:34:01;;;;;;;6.87;4.90;;;10.60;99.90;;;-141.84;85.95;18143.59;5071935;28;20208;-56
2022/05/30 03:36:33;;;;;;;5.30;4.80;;;10.70;99.90;;;-141.84;86.00;18094.84;5071367;28;20200;-58
2022/05/30 03:39:01;;;;;;;6.87;5.03;;;10.70;99.90;;;-141.84;84.83;18174.06;5071337;28;20598;-57
2022/05/30 03:41:29;;;;;;;6.03;4.43;;;10.80;99.90;;;-141.84;84.67;18165.94;5071178;28;20210;-58
2022/05/30 03:44:00;;;;;;;7.77;4.83;;;10.80;99.90;;;-141.84;84.61;18161.88;5071246;28;20236;-56
2022/05/30 03:46:29;;;;;;;5.43;4.93;;;10.90;99.90;;;-141.84;84.43;18139.53;5070842;28;20195;-58
2022/05/30 03:48:58;;;;;;;6.00;4.60;;;11.00;99.90;;;-141.84;83.02;18182.19;5071188;28;20243;-57
2022/05/30 03:51:26;;;;;;;7.03;5.57;;;11.10;99.90;;;-141.84;82.05;18235.00;5071160;28;20615;-57
2022/05/30 03:53:56;;;;;;;6.67;5.63;;;11.10;99.90;;;-141.84;81.50;18243.16;5071462;28;20207;-58
2022/05/30 03:56:24;;;;;;;8.30;5.87;;;11.20;99.90;;;-141.84;81.17;18239.09;5071049;28;20205;-59
2022/05/30 03:58:52;;;;;;;7.13;5.73;;;11.30;99.90;;;-141.84;80.23;18285.81;5071531;28;20200;-57
2022/05/30 04:01:20;;;;;;;7.87;4.97;;;11.30;99.90;;;-141.84;81.03;18269.56;5071291;28;20584;-56
2022/05/30 04:03:48;;;;;;;6.43;5.50;;;11.50;99.90;;;-141.84;77.53;18330.50;5071078;28;20228;-57
2022/05/30 04:06:16;;;;;;;6.33;4.70;;;11.80;99.90;;;-141.84;77.93;18324.41;5071308;28;20205;-58
2022/05/30 04:08:44;;;;;;;7.13;5.37;;;12.00;99.90;;;-141.84;76.53;18389.41;5070884;28;20726;-57
2022/05/30 04:11:14;;;;;;;5.53;4.90;;;12.10;99.90;;;-141.84;76.86;18371.13;5071199;28;20576;-57
2022/05/30 04:13:42;;;;;;;7.57;5.97;;;12.10;99.90;;;-141.84;75.03;18442.25;5071681;28;20300;-56
2022/05/30 04:16:12;;;;;;;6.37;5.77;;;12.10;99.90;;;-141.84;75.78;18387.38;5071308;28;20295;-58
2022/05/30 04:18:42;;;;;;;6.40;5.73;;;12.00;99.90;;;-141.84;77.37;18352.84;5071332;28;20185;-59
2022/05/30 04:21:12;;;;;;;9.47;6.87;;;11.90;99.90;;;-141.84;76.97;18371.13;5074034;28;20209;-55
2022/05/30 04:23:42;;;;;;;7.90;7.10;;;11.80;99.90;;;-141.84;78.38;18326.44;5075031;28;20216;-57
2022/05/30 04:26:15;;;;;;;8.23;6.30;;;11.80;99.90;;;-141.84;79.11;18277.69;5074663;28;20276;-56
2022/05/30 04:28:44;;;;;;;10.57;7.03;;;11.70;99.90;;;-141.84;78.52;18295.97;5074750;28;20209;-57
2022/05/30 04:31:14;;;;;;;7.80;6.90;;;11.70;99.90;;;-141.84;79.30;18328.47;5074549;28;20207;-57
2022/05/30 04:33:43;;;;;;;7.13;6.27;;;11.50;99.90;;;-141.84;78.75;18302.06;5074646;28;20591;-57
2022/05/30 04:36:14;;;;;;;7.60;6.50;;;11.30;99.90;;;-141.84;79.81;18281.75;5074890;28;20228;-57
2022/05/30 04:38:43;;;;;;;7.70;6.53;;;11.30;99.90;;;-141.84;80.61;18291.91;5074770;28;20188;-57
2022/05/30 04:41:11;;;;;;;8.73;6.83;;;11.30;99.90;;;-141.84;80.21;18281.75;5074282;28;20208;-56
2022/05/30 04:43:40;;;;;;;7.70;6.47;;;11.20;99.90;;;-141.84;81.07;18239.09;5074687;28;20205;-58
2022/05/30 04:46:13;;;;;;;7.23;6.30;;;11.10;99.90;;;-141.84;80.94;18226.88;5074264;28;20669;-57
2022/05/30 04:48:42;;;;;;;7.70;6.00;;;11.30;99.90;;;-141.84;81.26;18255.34;5074697;28;20193;-58
2022/05/30 04:51:12;;;;;;;8.27;6.47;;;11.30;99.90;;;-141.84;79.24;18287.84;5074608;28;20189;-58
2022/05/30 04:53:41;;;;;;;8.03;6.63;;;11.40;99.90;;;-141.84;77.96;18310.19;5074545;28;20205;-55
2022/05/30 04:56:09;;;;;;;7.40;5.93;;;11.50;99.90;;;-141.84;78.55;18304.09;5074370;28;20207;-59
2022/05/30 04:58:37;;;;;;;7.40;6.00;;;11.50;99.90;;;-141.84;77.90;18308.16;5074658;28;20295;-56
2022/05/30 05:01:10;;;;;;;8.13;6.20;;;11.60;99.90;;;-141.84;76.32;18350.81;5073994;28;20208;-57
2022/05/30 05:03:40;;;;;;;6.47;5.67;;;11.70;99.90;;;-141.84;76.43;18363.00;5074384;28;20234;-58
2022/05/30 05:06:12;;;;;;;6.53;5.93;;;11.80;99.90;;;-141.84;76.56;18371.13;5074354;28;20201;-56
2022/05/30 05:08:54;;;;;;;7.93;5.80;;;11.80;99.90;;;-141.84;76.88;18360.97;5074024;28;20610;-58
2022/05/30 05:11:24;;;;;;;6.67;5.83;;;11.80;99.90;;;-141.84;77.39;18350.81;5073848;28;20185;-57
2022/05/30 05:13:53;;;;;;;7.33;5.30;;;11.70;99.90;;;-141.84;77.66;18322.38;5073873;28;20204;-57
2022/05/30 05:16:25;;;;;;;7.13;5.33;;;11.60;99.90;;;-141.84;78.03;18330.50;5074037;28;20291;-57
2022/05/30 05:18:55;;;;;;;7.83;5.77;;;11.60;99.90;;;-141.84;77.88;18330.50;5074150;28;20209;-58
2022/05/30 05:21:27;;;;;;;6.70;5.73;;;11.50;99.90;;;-141.84;77.25;18342.69;5073853;28;20300;-58
2022/05/30 05:23:57;;;;;;;6.47;5.53;;;11.50;99.90;;;-141.84;78.06;18298.00;5074043;28;20193;-55
2022/05/30 05:26:27;;;;;;;7.83;5.80;;;11.50;99.90;;;-141.84;79.23;18334.56;5073844;28;20658;-58
2022/05/30 05:28:56;;;;;;;7.97;6.13;;;11.40;99.90;;;-141.84;78.99;18314.25;5073450;28;20688;-58
2022/05/30 05:31:29;;;;;;;6.37;5.20;;;11.40;99.90;;;-141.84;78.93;18293.94;5073174;28;20291;-57
2022/05/30 05:33:58;;;;;;;10.77;6.40;;;11.40;99.90;;;-141.84;79.04;18308.16;5073703;28;20185;-58
2022/05/30 05:36:29;;;;;;;7.97;6.33;;;11.50;99.90;;;-141.84;77.85;18312.22;5073473;28;20296;-57
2022/05/30 05:38:58;;;;;;;8.83;6.20;;;11.60;99.90;;;-141.84;77.11;18352.84;5073839;28;20268;-60
2022/05/30 05:41:26;;;;;;;9.03;6.17;;;11.50;99.90;;;-141.84;76.88;18358.94;5073468;28;20209;-56
2022/05/30 05:43:55;;;;;;;7.90;5.37;;;11.40;99.90;;;-141.84;75.87;18371.13;5073707;28;20286;-58
2022/05/30 05:46:28;;;;;;;8.73;5.70;;;11.50;99.90;;;-141.84;74.71;18397.53;5073167;28;20739;-58
2022/05/30 05:48:58;;;;;;;9.30;5.50;;;11.60;99.90;;;-141.84;75.43;18358.94;5073707;28;20188;-56
2022/05/30 05:51:28;;;;;;;9.03;5.30;;;11.70;99.90;;;-141.84;74.94;18356.91;5073714;28;20247;-58
2022/05/30 05:53:57;;;;;;;10.13;6.00;;;11.70;99.90;;;-141.84;73.51;18423.94;5073168;28;20788;-58
2022/05/30 05:56:29;;;;;;;9.03;6.00;;;11.70;99.90;;;-141.84;73.89;18399.56;5073568;28;20222;-56
2022/05/30 05:58:58;;;;;;;10.67;5.30;;;11.70;99.90;;;-141.84;75.47;18365.03;5073392;28;20219;-55
2022/05/30 06:01:31;;;;;;;9.40;6.40;;;11.70;99.90;;;-141.84;75.44;18379.25;5073207;28;20227;-56
2022/05/30 06:04:03;;;;;;;8.50;6.53;;;11.70;99.90;;;-141.84;75.17;18379.25;5072883;28;20185;-58
2022/05/30 06:06:32;;;;;;;10.17;6.97;;;11.70;99.90;;;-141.84;75.15;18381.28;5072832;28;20675;-56
2022/05/30 06:09:06;;;;;;;9.17;6.60;;;11.60;99.90;;;-141.84;75.70;18365.03;5073188;28;20186;-58
2022/05/30 06:11:35;;;;;;;11.27;7.37;;;11.70;99.90;;;-141.84;74.93;18395.50;5072957;28;20224;-58
2022/05/30 06:14:03;;;;;;;14.40;7.30;;;11.70;99.90;;;-141.84;75.84;18377.22;5072626;28;20300;-57
2022/05/30 06:16:39;;;;;;;8.87;6.77;;;11.50;99.90;;;-141.84;74.84;18383.31;5072999;28;20283;-57
2022/05/30 06:19:09;;;;;;;9.13;6.73;;;11.50;99.90;;;-141.84;76.05;18393.47;5072983;28;20209;-57
2022/05/30 06:21:40;;;;;;;12.73;7.63;;;11.50;99.90;;;-141.84;75.58;18379.25;5072865;28;20258;-55
2022/05/30 06:24:10;;;;;;;11.57;7.07;;;11.60;99.90;;;-141.84;74.47;18413.78;5072790;28;20196;-58
2022/05/30 06:26:38;;;;;;;11.50;7.03;;;11.70;99.90;;;-141.84;73.48;18405.66;5072934;28;20246;-56
2022/05/30 06:29:06;;;;;;;10.30;7.00;;;11.80;99.90;;;-141.84;75.40;18381.28;5072770;28;20209;-58
2022/05/30 06:31:35;;;;;;;9.13;7.03;;;11.80;99.90;;;-141.84;75.56;18375.19;5072268;28;20225;-57
2022/05/30 06:34:03;;;;;;;8.80;6.97;;;11.90;99.90;;;-141.84;74.37;18434.13;5072613;28;20211;-56
2022/05/30 06:36:32;;;;;;;10.40;6.63;;;12.20;99.90;;;-141.84;71.96;18450.38;5072572;28;20197;-56
2022/05/30 06:39:00;;;;;;;8.33;5.50;;;12.40;99.90;;;-141.84;70.38;18470.69;5072351;28;20204;-56
2022/05/30 06:41:31;;;;;;;8.13;5.50;;;12.50;99.90;;;-141.84;70.32;18525.53;5072009;28;20204;-59
2022/05/30 06:44:06;;;;;;;10.60;5.67;;;12.60;99.90;;;-141.84;69.69;18521.47;5071766;28;20284;-59
2022/05/30 06:46:38;;;;;;;7.90;4.80;;;12.90;99.90;;;-141.84;64.56;18641.34;5072147;28;20551;-58
2022/05/30 06:49:07;;;;;;;9.03;5.03;;;13.10;99.90;;;-141.84;64.67;18655.56;5072342;28;20189;-59
2022/05/30 06:51:37;;;;;;;7.83;5.20;;;13.20;99.90;;;-141.84;64.35;18635.25;5072087;28;20239;-59
2022/05/30 06:54:07;;;;;;;9.10;4.77;;;13.10;99.90;;;-141.84;63.73;18667.75;5071865;28;20694;-59
2022/05/30 06:58:11;;;;;;;7.47;4.63;;;13.20;99.90;;;-141.84;63.34;18690.09;5071908;28;20205;-58
2022/05/30 06:59:29;;;;;;;8.73;4.20;;;13.20;99.90;;;-141.84;62.97;18653.53;5072106;28;20199;-56
2022/05/30 07:02:00;;;;;;;6.97;4.40;;;13.40;99.90;;;-141.84;64.47;18673.84;5071952;28;20200;-57
2022/05/30 07:04:31;;;;;;;6.20;4.20;;;13.40;99.90;;;-141.84;62.78;18728.72;5072161;28;20189;-59
2022/05/30 07:06:59;;;;;;;7.00;4.30;;;13.50;99.90;;;-141.84;63.16;18684.00;5072146;28;20288;-58
2022/05/30 07:09:27;;;;;;;7.07;4.20;;;13.40;99.90;;;-141.84;62.79;18704.31;5071949;28;20204;-56
2022/05/30 07:11:55;;;;;;;6.77;4.07;;;13.40;99.90;;;-141.84;63.29;18700.25;5071721;28;20227;-59
2022/05/30 07:14:23;;;;;;;6.90;3.57;;;13.50;99.90;;;-141.84;61.34;18730.75;5071852;28;20291;-56
2022/05/30 07:16:51;;;;;;;8.17;4.10;;;13.50;99.90;;;-141.84;61.86;18747.00;5071385;28;20209;-57
2022/05/30 07:19:20;;;;;;;10.43;4.40;;;13.50;99.90;;;-141.84;62.30;18690.09;5071895;28;20221;-57
2022/05/30 07:21:48;;;;;;;6.37;3.87;;;13.10;99.90;;;-141.84;63.50;18684.00;5071316;28;20722;-55
2022/05/30 07:24:16;;;;;;;7.23;4.30;;;13.10;99.90;;;-141.84;64.02;18671.81;5071573;28;20200;-56
2022/05/30 07:26:44;;;;;;;5.57;4.40;;;13.00;99.90;;;-141.84;63.12;18708.41;5071417;28;20576;-57
2022/05/30 07:29:13;;;;;;;9.53;4.00;;;13.20;99.90;;;-141.84;64.14;18657.59;5071833;28;20291;-54
2022/05/30 07:31:41;;;;;;;6.20;3.90;;;13.20;99.90;;;-141.84;62.39;18694.16;5071556;28;20224;-56
2022/05/30 07:34:09;;;;;;;6.90;3.77;;;13.20;99.90;;;-141.84;63.00;18702.28;5071889;28;20236;-55
2022/05/30 07:36:38;;;;;;;6.07;4.00;;;13.10;99.90;;;-141.84;64.28;18700.25;5071562;28;20572;-55
2022/05/30 07:39:06;;;;;;;9.87;3.97;;;13.00;99.90;;;-141.84;65.46;18643.38;5071433;28;20636;-58
2022/05/30 07:41:40;;;;;;;6.93;3.20;;;13.10;99.90;;;-141.84;63.26;18700.25;5071319;28;20648;-57
2022/05/30 07:44:08;;;;;;;6.20;3.53;;;13.30;99.90;;;-141.84;64.01;18704.31;5071807;28;20225;-58
2022/05/30 07:46:36;;;;;;;8.40;3.40;;;13.30;99.90;;;-141.84;61.91;18734.81;5071684;28;20211;-60
2022/05/30 07:49:04;;;;;;;9.60;3.43;;;13.40;99.90;;;-141.84;61.64;18712.47;5071840;28;20204;-60
2022/05/30 07:51:32;;;;;;;7.07;3.10;;;13.40;99.90;;;-141.84;60.61;18751.06;5071341;28;20311;-61
2022/05/30 07:54:01;;;;;;;3.97;2.67;;;13.40;99.90;;;-141.84;61.44;18753.09;5072603;28;20204;-61
2022/05/30 07:56:30;;;;;;;6.17;2.50;;;13.40;99.90;;;-141.84;59.91;18789.66;5075633;28;20228;-61
2022/05/30 07:58:58;;;;;;;3.90;2.47;;;13.50;99.90;;;-141.84;59.30;18812.00;5075748;28;20204;-61
2022/05/30 08:01:26;;;;;;;3.10;2.27;;;13.70;99.90;;;-141.84;59.67;18818.09;5075294;28;20196;-60
2022/05/30 08:03:55;;;;;;;4.27;2.50;;;13.90;99.90;;;-141.84;60.18;18828.28;5075964;28;20215;-61
2022/05/30 08:06:26;;;;;;;6.50;2.40;;;14.00;99.90;;;-141.84;59.01;18809.97;5075231;28;20288;-60
2022/05/30 08:08:55;;;;;;;6.10;2.63;;;14.20;99.90;;;-141.84;58.52;18860.78;5075298;28;20679;-60
2022/05/30 08:11:25;;;;;;;4.90;2.30;;;14.10;99.90;;;-141.84;59.42;18830.31;5075283;28;20220;-59
2022/05/30 08:13:53;;;;;;;6.30;2.87;;;14.10;99.90;;;-141.84;59.36;18844.53;5074991;28;20205;-60
2022/05/30 08:16:25;;;;;;;5.70;2.57;;;14.10;99.90;;;-141.84;58.95;18818.09;5075192;28;20601;-60
2022/05/30 08:19:13;;;;;;;5.22;2.50;;;14.10;99.90;;;-141.84;57.10;18870.94;5075282;28;20197;-60
2022/05/30 08:22:06;;;;;;;6.27;2.20;;;14.10;99.90;;;-141.84;57.41;18887.19;5075543;28;20201;-60
2022/05/30 08:24:40;;;;;;;4.53;2.33;;;14.20;99.90;;;-141.84;56.65;18895.31;5075256;28;20200;-59
2022/05/30 08:27:10;;;;;;;4.10;2.67;;;14.30;99.90;;;-141.84;55.26;18976.59;5074859;28;20195;-61
2022/05/30 08:29:38;;;;;;;5.28;2.63;;;14.60;99.90;;;-141.84;54.11;18982.69;5074828;28;20672;-60
2022/05/30 08:32:08;;;;;;;5.20;2.38;;;14.60;99.90;;;-141.84;55.72;18948.16;5074857;28;20252;-61
2022/05/30 08:34:37;;;;;;;5.43;2.50;;;14.60;99.90;;;-141.84;55.58;18958.31;5075006;28;20279;-60
2022/05/30 08:37:06;;;;;;;5.57;2.55;;;14.80;99.90;;;-141.84;52.42;19049.75;5075029;28;20205;-61
2022/05/30 08:42:33;;;;;;;5.18;2.75;;;15.00;99.90;;;-141.84;52.99;19080.22;5074663;28;20566;-62
2022/05/30 08:45:09;;;;;;;5.47;2.60;;;15.30;99.90;;;-141.84;52.05;19086.31;5074412;28;20184;-61
2022/05/30 08:47:48;;;;;;;4.85;2.50;;;15.10;99.90;;;-141.84;52.18;19074.13;5074737;28;20188;-61
2022/05/30 08:50:34;;;;;;;4.63;3.00;;;15.20;99.90;;;-141.84;51.67;19076.16;5074755;28;20185;-61
2022/05/30 08:53:34;;;;;;;5.93;2.88;;;15.20;99.90;;;-141.84;52.10;19047.72;5074598;28;20299;-60
2022/05/30 08:56:19;;;;;;;5.50;3.08;;;15.20;99.90;;;-141.84;53.65;19029.44;5074222;28;20556;-61
2022/05/30 08:59:08;;;;;;;3.20;2.78;;;15.20;99.90;;;-141.84;53.68;19070.06;5074882;28;20191;-60
2022/05/30 09:01:42;;;;;;;4.30;2.78;;;15.60;99.90;;;-141.84;50.32;19183.84;5074129;28;20644;-61
2022/05/30 09:04:23;;;;;;;2.80;2.42;;;16.10;99.90;;;-141.84;47.58;19275.31;5074320;28;20656;-60
2022/05/30 09:07:00;;;;;;;4.60;2.80;;;16.30;99.90;;;-141.84;48.61;19252.94;5074160;28;20185;-59
2022/05/30 09:09:37;;;;;;;3.72;2.80;;;16.10;99.90;;;-141.84;48.19;19285.47;5074813;28;20483;-60
2022/05/30 09:12:17;;;;;;;3.13;2.60;;;16.00;99.90;;;-141.84;50.00;19153.38;5073745;28;20308;-60
2022/05/30 09:14:53;;;;;;;6.38;3.40;;;15.90;99.90;;;-141.84;49.94;19187.91;5074361;28;20234;-60
2022/05/30 09:17:32;;;;;;;4.47;2.97;;;15.90;99.90;;;-141.84;51.38;19102.56;5073964;28;20185;-59
2022/05/30 09:20:05;;;;;;;5.32;3.30;;;15.60;99.90;;;-141.84;50.69;19167.59;5073845;28;20590;-61
2022/05/30 09:22:35;;;;;;;8.13;3.33;;;15.80;99.90;;;-141.84;51.64;19151.34;5073654;28;20271;-60
2022/05/30 09:27:50;;;;;;;5.30;3.45;;;15.90;99.90;;;-141.84;50.06;19196.06;5073863;28;20271;-60
2022/05/30 09:30:44;;;;;;;7.95;3.47;;;15.70;99.90;;;-141.84;50.10;19196.06;5073870;28;20307;-60
2022/05/30 09:33:28;;;;;;;6.60;3.65;;;15.80;99.90;;;-141.84;50.64;19169.63;5073794;28;20205;-60
2022/05/30 09:36:15;;;;;;;5.80;2.75;;;15.90;99.90;;;-141.84;49.92;19171.66;5073931;28;20271;-60
2022/05/30 09:38:48;;;;;;;4.45;3.10;;;15.80;99.90;;;-141.84;49.10;19204.19;5073796;28;20231;-61
2022/05/30 09:41:23;;;;;;;4.70;2.83;;;15.80;99.90;;;-141.84;48.74;19234.66;5073420;28;20315;-60
2022/05/30 09:43:56;;;;;;;4.57;2.97;;;16.10;99.90;;;-141.84;47.93;19291.56;5073693;28;20275;-61
2022/05/30 09:46:37;;;;;;;4.38;3.10;;;16.20;99.90;;;-141.84;49.21;19228.56;5073829;28;20285;-61
2022/05/30 09:49:11;;;;;;;7.57;3.25;;;16.10;99.90;;;-141.84;48.74;19265.13;5073724;28;20196;-60
2022/05/30 09:51:43;;;;;;;5.55;3.00;;;16.10;99.90;;;-141.84;49.29;19224.50;5073447;28;20235;-61
2022/05/30 09:54:30;;;;;;;4.07;2.63;;;16.30;99.90;;;-141.84;48.93;19269.22;5073537;28;20213;-60
2022/05/30 09:57:07;;;;;;;6.28;2.65;;;16.50;99.90;;;-141.84;47.76;19277.34;5073386;28;20195;-60
2022/05/30 09:59:39;;;;;;;4.15;2.28;;;16.70;99.90;;;-141.84;47.07;19305.78;5073047;28;20609;-61
2022/05/30 10:02:25;;;;;;;2.75;1.77;;;16.60;99.90;;;-141.84;46.60;19285.47;5073229;28;20177;-60
2022/05/30 10:05:01;;;;;;;2.63;2.13;;;16.40;99.90;;;-141.84;46.28;19322.03;5073457;28;20208;-61
2022/05/30 10:07:32;;;;;;;2.65;1.80;;;16.40;99.90;;;-141.84;46.69;19271.25;5073250;28;20185;-61
2022/05/30 10:10:03;;;;;;;4.38;2.28;;;16.20;99.90;;;-141.84;47.19;19257.00;5073255;28;20187;-61
2022/05/30 10:12:37;;;;;;;4.78;1.98;;;16.30;99.90;;;-141.84;46.91;19295.63;5073193;28;20208;-60
2022/05/30 10:15:29;;;;;;;4.57;2.13;;;16.20;99.90;;;-141.84;46.06;19342.34;5073086;28;20208;-61
2022/05/30 10:18:22;;;;;;;2.65;2.05;;;16.50;99.90;;;-141.84;43.93;19429.75;5072130;28;20644;-60
2022/05/30 10:21:06;;;;;;;2.47;1.60;;;16.60;99.90;;;-141.84;42.55;19452.09;5072600;28;20280;-61
2022/05/30 10:30:19;;;;;;;3.30;1.95;;;16.90;99.90;;;-141.84;43.34;19480.53;5072747;28;20199;-60
2022/05/30 10:33:08;;;;;;;3.00;2.00;;;17.00;99.90;;;-141.84;42.51;19511.03;5073337;28;20205;-62
2022/05/30 10:35:44;;;;;;;3.00;1.98;;;17.00;99.90;;;-141.84;43.19;19525.25;5072995;28;20598;-60
2022/05/30 10:38:32;;;;;;;4.32;2.40;;;17.10;99.90;;;-141.84;43.30;19523.22;5072836;28;20279;-61
2022/05/30 10:41:09;;;;;;;3.55;2.17;;;17.10;99.90;;;-141.84;42.93;19527.28;5072296;28;20209;-61
2022/05/30 10:43:53;;;;;;;3.70;2.20;;;17.10;99.90;;;-141.84;43.52;19490.72;5072614;28;20200;-61
2022/05/30 10:46:32;;;;;;;3.97;2.30;;;17.30;99.90;;;-141.84;43.28;19527.28;5072569;28;20185;-60